sensor_id;sensor_type;location;lat;lon;timestamp;P1;durP1;ratioP1;P2;durP2;ratioP2
39486;SDS011;25173;50.430;18.926;2023-03-03T00:01:09;112.85;;;64.43;;
39486;SDS011;25173;50.430;18.926;2023-03-03T00:04:09;110.88;;;63.20;;
39486;SDS011;25173;50.430;18.926;2023-03-03T00:07:10;125.93;;;70.40;;
39486;SDS011;25173;50.430;18.926;2023-03-03T00:10:11;142.10;;;79.28;;
39486;SDS011;25173;50.430;18.926;2023-03-03T00:13:16;163.75;;;96.82;;
39486;SDS011;25173;50.430;18.926;2023-03-03T00:16:27;159.13;;;90.55;;
39486;SDS011;25173;50.430;18.926;2023-03-03T00:19:37;142.15;;;84.68;;
39486;SDS011;25173;50.430;18.926;2023-03-03T00:22:39;161.23;;;95.13;;
39486;SDS011;25173;50.430;18.926;2023-03-03T00:25:41;153.80;;;85.30;;
39486;SDS011;25173;50.430;18.926;2023-03-03T00:28:47;158.35;;;85.50;;
39486;SDS011;25173;50.430;18.926;2023-03-03T00:31:49;149.05;;;84.20;;
39486;SDS011;25173;50.430;18.926;2023-03-03T00:34:51;146.30;;;84.82;;
39486;SDS011;25173;50.430;18.926;2023-03-03T00:37:57;152.23;;;85.03;;
39486;SDS011;25173;50.430;18.926;2023-03-03T00:40:59;144.63;;;81.40;;
39486;SDS011;25173;50.430;18.926;2023-03-03T00:44:00;140.20;;;79.78;;
39486;SDS011;25173;50.430;18.926;2023-03-03T00:47:35;131.23;;;74.70;;
39486;SDS011;25173;50.430;18.926;2023-03-03T00:50:38;133.18;;;74.43;;
39486;SDS011;25173;50.430;18.926;2023-03-03T00:53:42;144.52;;;82.90;;
39486;SDS011;25173;50.430;18.926;2023-03-03T00:56:43;159.07;;;87.70;;
39486;SDS011;25173;50.430;18.926;2023-03-03T00:59:44;153.50;;;85.22;;
39486;SDS011;25173;50.430;18.926;2023-03-03T01:02:45;161.70;;;91.95;;
39486;SDS011;25173;50.430;18.926;2023-03-03T01:05:48;188.35;;;105.05;;
39486;SDS011;25173;50.430;18.926;2023-03-03T01:08:49;184.52;;;101.40;;
39486;SDS011;25173;50.430;18.926;2023-03-03T01:11:49;174.40;;;98.78;;
39486;SDS011;25173;50.430;18.926;2023-03-03T01:14:51;173.82;;;98.93;;
39486;SDS011;25173;50.430;18.926;2023-03-03T01:17:54;172.45;;;94.50;;
39486;SDS011;25173;50.430;18.926;2023-03-03T01:20:55;158.90;;;89.72;;
39486;SDS011;25173;50.430;18.926;2023-03-03T01:23:55;140.75;;;83.47;;
39486;SDS011;25173;50.430;18.926;2023-03-03T01:26:56;137.23;;;79.43;;
39486;SDS011;25173;50.430;18.926;2023-03-03T01:29:57;133.50;;;74.88;;
39486;SDS011;25173;50.430;18.926;2023-03-03T01:32:58;144.10;;;82.82;;
39486;SDS011;25173;50.430;18.926;2023-03-03T01:35:58;149.30;;;84.10;;
39486;SDS011;25173;50.430;18.926;2023-03-03T01:38:59;133.05;;;75.78;;
39486;SDS011;25173;50.430;18.926;2023-03-03T01:42:02;102.55;;;58.83;;
39486;SDS011;25173;50.430;18.926;2023-03-03T01:45:17;102.15;;;59.33;;
39486;SDS011;25173;50.430;18.926;2023-03-03T01:48:21;103.65;;;61.95;;
39486;SDS011;25173;50.430;18.926;2023-03-03T01:51:34;96.18;;;55.28;;
39486;SDS011;25173;50.430;18.926;2023-03-03T01:54:41;92.47;;;53.85;;
39486;SDS011;25173;50.430;18.926;2023-03-03T01:57:48;88.15;;;52.20;;
39486;SDS011;25173;50.430;18.926;2023-03-03T02:00:59;93.07;;;52.38;;
39486;SDS011;25173;50.430;18.926;2023-03-03T02:04:05;97.50;;;56.38;;
39486;SDS011;25173;50.430;18.926;2023-03-03T02:07:08;105.80;;;60.83;;
39486;SDS011;25173;50.430;18.926;2023-03-03T02:13:15;110.95;;;64.80;;
39486;SDS011;25173;50.430;18.926;2023-03-03T02:16:16;103.60;;;62.65;;
39486;SDS011;25173;50.430;18.926;2023-03-03T02:19:20;95.03;;;56.47;;
39486;SDS011;25173;50.430;18.926;2023-03-03T02:22:40;88.68;;;51.70;;
39486;SDS011;25173;50.430;18.926;2023-03-03T02:28:57;85.05;;;50.40;;
39486;SDS011;25173;50.430;18.926;2023-03-03T02:31:58;93.20;;;54.08;;
39486;SDS011;25173;50.430;18.926;2023-03-03T02:34:58;93.63;;;54.35;;
39486;SDS011;25173;50.430;18.926;2023-03-03T02:38:11;94.45;;;56.75;;
39486;SDS011;25173;50.430;18.926;2023-03-03T02:41:25;98.43;;;55.33;;
39486;SDS011;25173;50.430;18.926;2023-03-03T02:44:48;97.95;;;53.72;;
39486;SDS011;25173;50.430;18.926;2023-03-03T02:47:49;105.70;;;63.40;;
39486;SDS011;25173;50.430;18.926;2023-03-03T02:50:51;110.68;;;63.05;;
39486;SDS011;25173;50.430;18.926;2023-03-03T02:53:52;94.93;;;52.10;;
39486;SDS011;25173;50.430;18.926;2023-03-03T02:56:53;90.18;;;52.30;;
39486;SDS011;25173;50.430;18.926;2023-03-03T02:59:54;86.38;;;51.90;;
39486;SDS011;25173;50.430;18.926;2023-03-03T03:02:55;90.57;;;52.42;;
39486;SDS011;25173;50.430;18.926;2023-03-03T03:05:56;87.25;;;51.75;;
39486;SDS011;25173;50.430;18.926;2023-03-03T03:08:58;88.68;;;50.72;;
39486;SDS011;25173;50.430;18.926;2023-03-03T03:12:01;86.32;;;51.80;;
39486;SDS011;25173;50.430;18.926;2023-03-03T03:15:04;79.75;;;47.70;;
39486;SDS011;25173;50.430;18.926;2023-03-03T03:18:05;93.45;;;51.33;;
39486;SDS011;25173;50.430;18.926;2023-03-03T03:21:08;83.40;;;51.20;;
39486;SDS011;25173;50.430;18.926;2023-03-03T03:24:12;90.33;;;50.97;;
39486;SDS011;25173;50.430;18.926;2023-03-03T03:27:17;89.78;;;49.85;;
39486;SDS011;25173;50.430;18.926;2023-03-03T03:30:19;86.00;;;53.28;;
39486;SDS011;25173;50.430;18.926;2023-03-03T03:33:21;87.10;;;53.13;;
39486;SDS011;25173;50.430;18.926;2023-03-03T03:36:23;114.22;;;70.15;;
39486;SDS011;25173;50.430;18.926;2023-03-03T03:39:24;120.88;;;78.22;;
39486;SDS011;25173;50.430;18.926;2023-03-03T03:42:26;124.57;;;89.47;;
39486;SDS011;25173;50.430;18.926;2023-03-03T03:45:27;151.93;;;128.45;;
39486;SDS011;25173;50.430;18.926;2023-03-03T03:48:27;111.13;;;76.80;;
39486;SDS011;25173;50.430;18.926;2023-03-03T03:51:29;89.20;;;52.90;;
39486;SDS011;25173;50.430;18.926;2023-03-03T03:54:31;91.82;;;54.50;;
39486;SDS011;25173;50.430;18.926;2023-03-03T03:57:31;89.85;;;50.58;;
39486;SDS011;25173;50.430;18.926;2023-03-03T04:00:34;78.70;;;50.80;;
39486;SDS011;25173;50.430;18.926;2023-03-03T04:03:35;80.63;;;53.15;;
39486;SDS011;25173;50.430;18.926;2023-03-03T04:06:39;85.32;;;53.22;;
39486;SDS011;25173;50.430;18.926;2023-03-03T04:09:40;91.13;;;57.97;;
39486;SDS011;25173;50.430;18.926;2023-03-03T04:12:41;263.42;;;135.35;;
39486;SDS011;25173;50.430;18.926;2023-03-03T04:15:46;158.43;;;86.38;;
39486;SDS011;25173;50.430;18.926;2023-03-03T04:18:47;104.28;;;61.13;;
39486;SDS011;25173;50.430;18.926;2023-03-03T04:21:50;122.20;;;57.45;;
39486;SDS011;25173;50.430;18.926;2023-03-03T04:24:52;140.10;;;60.10;;
39486;SDS011;25173;50.430;18.926;2023-03-03T04:27:53;216.70;;;59.50;;
39486;SDS011;25173;50.430;18.926;2023-03-03T04:30:55;131.57;;;60.40;;
39486;SDS011;25173;50.430;18.926;2023-03-03T04:33:58;112.25;;;59.70;;
39486;SDS011;25173;50.430;18.926;2023-03-03T04:36:59;107.40;;;54.25;;
39486;SDS011;25173;50.430;18.926;2023-03-03T04:40:02;114.07;;;55.40;;
39486;SDS011;25173;50.430;18.926;2023-03-03T04:43:04;110.75;;;58.85;;
39486;SDS011;25173;50.430;18.926;2023-03-03T04:46:05;100.47;;;55.90;;
39486;SDS011;25173;50.430;18.926;2023-03-03T04:49:06;96.45;;;53.67;;
39486;SDS011;25173;50.430;18.926;2023-03-03T04:52:08;104.35;;;54.08;;
39486;SDS011;25173;50.430;18.926;2023-03-03T04:55:11;109.55;;;55.10;;
39486;SDS011;25173;50.430;18.926;2023-03-03T04:58:13;108.00;;;54.65;;
39486;SDS011;25173;50.430;18.926;2023-03-03T05:01:15;102.00;;;55.15;;
39486;SDS011;25173;50.430;18.926;2023-03-03T05:04:16;109.22;;;56.75;;
39486;SDS011;25173;50.430;18.926;2023-03-03T05:07:17;97.55;;;54.85;;
39486;SDS011;25173;50.430;18.926;2023-03-03T05:10:19;99.80;;;54.13;;
39486;SDS011;25173;50.430;18.926;2023-03-03T05:13:20;98.47;;;55.40;;
39486;SDS011;25173;50.430;18.926;2023-03-03T05:16:20;104.88;;;56.72;;
39486;SDS011;25173;50.430;18.926;2023-03-03T05:19:21;101.07;;;55.50;;
39486;SDS011;25173;50.430;18.926;2023-03-03T05:22:23;94.90;;;53.13;;
39486;SDS011;25173;50.430;18.926;2023-03-03T05:25:24;93.32;;;52.67;;
39486;SDS011;25173;50.430;18.926;2023-03-03T05:28:25;104.28;;;56.08;;
39486;SDS011;25173;50.430;18.926;2023-03-03T05:31:25;106.18;;;55.75;;
39486;SDS011;25173;50.430;18.926;2023-03-03T05:34:26;101.97;;;56.70;;
39486;SDS011;25173;50.430;18.926;2023-03-03T05:37:27;96.72;;;55.08;;
39486;SDS011;25173;50.430;18.926;2023-03-03T05:40:27;102.55;;;56.15;;
39486;SDS011;25173;50.430;18.926;2023-03-03T05:43:28;100.00;;;55.30;;
39486;SDS011;25173;50.430;18.926;2023-03-03T05:46:29;100.25;;;57.28;;
39486;SDS011;25173;50.430;18.926;2023-03-03T05:49:29;97.93;;;54.67;;
39486;SDS011;25173;50.430;18.926;2023-03-03T05:52:30;86.75;;;48.58;;
39486;SDS011;25173;50.430;18.926;2023-03-03T05:55:30;87.40;;;46.47;;
39486;SDS011;25173;50.430;18.926;2023-03-03T05:58:31;81.32;;;42.60;;
39486;SDS011;25173;50.430;18.926;2023-03-03T06:01:32;84.22;;;44.08;;
39486;SDS011;25173;50.430;18.926;2023-03-03T06:04:33;83.97;;;44.35;;
39486;SDS011;25173;50.430;18.926;2023-03-03T06:07:33;81.78;;;43.92;;
39486;SDS011;25173;50.430;18.926;2023-03-03T06:10:34;89.38;;;44.45;;
39486;SDS011;25173;50.430;18.926;2023-03-03T06:13:38;87.82;;;49.17;;
39486;SDS011;25173;50.430;18.926;2023-03-03T06:16:40;91.60;;;46.13;;
39486;SDS011;25173;50.430;18.926;2023-03-03T06:19:41;74.00;;;41.00;;
39486;SDS011;25173;50.430;18.926;2023-03-03T06:22:41;72.78;;;43.08;;
39486;SDS011;25173;50.430;18.926;2023-03-03T06:25:42;69.15;;;42.03;;
39486;SDS011;25173;50.430;18.926;2023-03-03T06:28:43;73.25;;;38.97;;
39486;SDS011;25173;50.430;18.926;2023-03-03T06:31:44;77.78;;;42.13;;
39486;SDS011;25173;50.430;18.926;2023-03-03T06:34:45;103.93;;;38.00;;
39486;SDS011;25173;50.430;18.926;2023-03-03T06:37:45;92.35;;;38.17;;
39486;SDS011;25173;50.430;18.926;2023-03-03T06:40:46;83.15;;;38.55;;
39486;SDS011;25173;50.430;18.926;2023-03-03T06:43:46;120.63;;;52.88;;
39486;SDS011;25173;50.430;18.926;2023-03-03T06:46:47;84.43;;;39.75;;
39486;SDS011;25173;50.430;18.926;2023-03-03T06:49:48;104.68;;;44.38;;
39486;SDS011;25173;50.430;18.926;2023-03-03T06:52:49;117.65;;;61.40;;
39486;SDS011;25173;50.430;18.926;2023-03-03T06:56:04;125.00;;;47.83;;
39486;SDS011;25173;50.430;18.926;2023-03-03T06:59:15;98.75;;;39.40;;
39486;SDS011;25173;50.430;18.926;2023-03-03T07:02:17;133.07;;;52.70;;
39486;SDS011;25173;50.430;18.926;2023-03-03T07:05:25;108.50;;;51.03;;
39486;SDS011;25173;50.430;18.926;2023-03-03T07:08:29;103.00;;;50.60;;
39486;SDS011;25173;50.430;18.926;2023-03-03T07:11:31;116.03;;;47.13;;
39486;SDS011;25173;50.430;18.926;2023-03-03T07:14:33;116.70;;;45.97;;
39486;SDS011;25173;50.430;18.926;2023-03-03T07:17:43;105.80;;;44.28;;
39486;SDS011;25173;50.430;18.926;2023-03-03T07:20:46;99.93;;;40.42;;
39486;SDS011;25173;50.430;18.926;2023-03-03T07:23:48;91.25;;;44.88;;
39486;SDS011;25173;50.430;18.926;2023-03-03T07:26:50;87.93;;;38.47;;
39486;SDS011;25173;50.430;18.926;2023-03-03T07:29:52;89.85;;;36.33;;
39486;SDS011;25173;50.430;18.926;2023-03-03T07:32:55;98.72;;;34.20;;
39486;SDS011;25173;50.430;18.926;2023-03-03T07:35:57;95.53;;;36.17;;
39486;SDS011;25173;50.430;18.926;2023-03-03T07:39:00;85.10;;;35.10;;
39486;SDS011;25173;50.430;18.926;2023-03-03T07:45:28;99.72;;;38.05;;
39486;SDS011;25173;50.430;18.926;2023-03-03T07:48:33;83.28;;;39.35;;
39486;SDS011;25173;50.430;18.926;2023-03-03T07:51:37;75.40;;;32.10;;
39486;SDS011;25173;50.430;18.926;2023-03-03T07:54:42;82.70;;;36.05;;
39486;SDS011;25173;50.430;18.926;2023-03-03T07:57:50;70.78;;;34.72;;
39486;SDS011;25173;50.430;18.926;2023-03-03T08:07:22;54.58;;;28.40;;
39486;SDS011;25173;50.430;18.926;2023-03-03T08:10:28;65.38;;;31.92;;
39486;SDS011;25173;50.430;18.926;2023-03-03T08:13:39;60.83;;;30.92;;
39486;SDS011;25173;50.430;18.926;2023-03-03T08:16:42;61.80;;;31.33;;
39486;SDS011;25173;50.430;18.926;2023-03-03T08:19:42;55.38;;;32.50;;
39486;SDS011;25173;50.430;18.926;2023-03-03T08:22:43;64.10;;;35.60;;
39486;SDS011;25173;50.430;18.926;2023-03-03T08:25:43;55.85;;;28.50;;
39486;SDS011;25173;50.430;18.926;2023-03-03T08:28:45;70.45;;;35.25;;
39486;SDS011;25173;50.430;18.926;2023-03-03T08:31:45;47.78;;;27.88;;
39486;SDS011;25173;50.430;18.926;2023-03-03T08:34:46;48.65;;;26.85;;
39486;SDS011;25173;50.430;18.926;2023-03-03T08:37:46;53.22;;;27.92;;
39486;SDS011;25173;50.430;18.926;2023-03-03T08:40:47;48.85;;;28.17;;
39486;SDS011;25173;50.430;18.926;2023-03-03T08:43:49;55.20;;;30.85;;
39486;SDS011;25173;50.430;18.926;2023-03-03T08:46:49;63.63;;;31.42;;
39486;SDS011;25173;50.430;18.926;2023-03-03T08:49:50;55.33;;;29.60;;
39486;SDS011;25173;50.430;18.926;2023-03-03T08:52:51;55.03;;;29.73;;
39486;SDS011;25173;50.430;18.926;2023-03-03T08:55:51;53.50;;;27.83;;
39486;SDS011;25173;50.430;18.926;2023-03-03T08:58:52;48.22;;;28.15;;
39486;SDS011;25173;50.430;18.926;2023-03-03T09:01:52;46.25;;;24.92;;
39486;SDS011;25173;50.430;18.926;2023-03-03T09:04:54;50.05;;;27.02;;
39486;SDS011;25173;50.430;18.926;2023-03-03T09:07:54;48.92;;;26.73;;
39486;SDS011;25173;50.430;18.926;2023-03-03T09:10:55;44.72;;;24.67;;
39486;SDS011;25173;50.430;18.926;2023-03-03T09:17:31;57.00;;;32.15;;
39486;SDS011;25173;50.430;18.926;2023-03-03T09:20:35;57.65;;;32.45;;
39486;SDS011;25173;50.430;18.926;2023-03-03T09:23:43;76.75;;;40.88;;
39486;SDS011;25173;50.430;18.926;2023-03-03T09:26:55;60.45;;;34.30;;
39486;SDS011;25173;50.430;18.926;2023-03-03T09:33:15;49.67;;;29.85;;
39486;SDS011;25173;50.430;18.926;2023-03-03T09:36:35;43.03;;;25.35;;
39486;SDS011;25173;50.430;18.926;2023-03-03T09:39:37;33.67;;;20.23;;
39486;SDS011;25173;50.430;18.926;2023-03-03T09:49:01;65.97;;;37.53;;
39486;SDS011;25173;50.430;18.926;2023-03-03T09:52:44;99.85;;;62.13;;
39486;SDS011;25173;50.430;18.926;2023-03-03T09:56:15;76.30;;;54.22;;
39486;SDS011;25173;50.430;18.926;2023-03-03T10:02:35;41.70;;;21.58;;
39486;SDS011;25173;50.430;18.926;2023-03-03T10:05:48;37.75;;;22.38;;
39486;SDS011;25173;50.430;18.926;2023-03-03T10:25:41;46.92;;;23.67;;
39486;SDS011;25173;50.430;18.926;2023-03-03T10:48:35;49.38;;;27.15;;
39486;SDS011;25173;50.430;18.926;2023-03-03T10:51:52;60.95;;;30.63;;
39486;SDS011;25173;50.430;18.926;2023-03-03T10:55:07;46.08;;;25.55;;
39486;SDS011;25173;50.430;18.926;2023-03-03T11:01:28;32.75;;;19.40;;
39486;SDS011;25173;50.430;18.926;2023-03-03T11:08:43;50.40;;;29.70;;
39486;SDS011;25173;50.430;18.926;2023-03-03T11:15:10;27.83;;;16.67;;
39486;SDS011;25173;50.430;18.926;2023-03-03T11:18:30;42.15;;;24.92;;
39486;SDS011;25173;50.430;18.926;2023-03-03T11:31:59;31.05;;;17.30;;
39486;SDS011;25173;50.430;18.926;2023-03-03T11:38:38;32.47;;;18.42;;
39486;SDS011;25173;50.430;18.926;2023-03-03T11:45:17;38.47;;;22.10;;
39486;SDS011;25173;50.430;18.926;2023-03-03T11:48:21;57.80;;;30.70;;
39486;SDS011;25173;50.430;18.926;2023-03-03T11:51:48;56.50;;;35.25;;
39486;SDS011;25173;50.430;18.926;2023-03-03T11:54:56;41.38;;;25.42;;
39486;SDS011;25173;50.430;18.926;2023-03-03T12:01:38;40.78;;;26.38;;
39486;SDS011;25173;50.430;18.926;2023-03-03T12:04:45;27.92;;;16.38;;
39486;SDS011;25173;50.430;18.926;2023-03-03T12:15:04;54.25;;;29.70;;
39486;SDS011;25173;50.430;18.926;2023-03-03T12:31:22;33.17;;;22.35;;
39486;SDS011;25173;50.430;18.926;2023-03-03T12:34:35;57.53;;;39.33;;
39486;SDS011;25173;50.430;18.926;2023-03-03T12:44:18;64.40;;;36.00;;
39486;SDS011;25173;50.430;18.926;2023-03-03T12:47:40;55.10;;;30.60;;
39486;SDS011;25173;50.430;18.926;2023-03-03T12:50:54;33.67;;;19.15;;
39486;SDS011;25173;50.430;18.926;2023-03-03T12:54:06;27.38;;;16.65;;
39486;SDS011;25173;50.430;18.926;2023-03-03T13:00:23;27.30;;;15.63;;
39486;SDS011;25173;50.430;18.926;2023-03-03T13:03:52;25.90;;;16.73;;
39486;SDS011;25173;50.430;18.926;2023-03-03T13:07:13;52.42;;;24.13;;
39486;SDS011;25173;50.430;18.926;2023-03-03T13:20:40;43.03;;;22.92;;
39486;SDS011;25173;50.430;18.926;2023-03-03T13:23:47;41.25;;;21.65;;
39486;SDS011;25173;50.430;18.926;2023-03-03T13:26:54;69.35;;;31.88;;
39486;SDS011;25173;50.430;18.926;2023-03-03T13:33:16;37.72;;;21.45;;
39486;SDS011;25173;50.430;18.926;2023-03-03T13:36:34;67.30;;;31.92;;
39486;SDS011;25173;50.430;18.926;2023-03-03T13:43:04;33.45;;;20.20;;
39486;SDS011;25173;50.430;18.926;2023-03-03T13:56:08;92.32;;;37.90;;
39486;SDS011;25173;50.430;18.926;2023-03-03T13:59:14;74.43;;;33.90;;
39486;SDS011;25173;50.430;18.926;2023-03-03T14:05:49;30.95;;;17.92;;
39486;SDS011;25173;50.430;18.926;2023-03-03T14:15:24;32.13;;;19.25;;
39486;SDS011;25173;50.430;18.926;2023-03-03T14:18:35;28.77;;;17.05;;
39486;SDS011;25173;50.430;18.926;2023-03-03T14:25:12;29.83;;;17.40;;
39486;SDS011;25173;50.430;18.926;2023-03-03T14:28:14;76.95;;;32.45;;
39486;SDS011;25173;50.430;18.926;2023-03-03T14:37:27;32.80;;;17.25;;
39486;SDS011;25173;50.430;18.926;2023-03-03T14:40:48;27.75;;;16.73;;
39486;SDS011;25173;50.430;18.926;2023-03-03T14:47:26;32.13;;;18.15;;
39486;SDS011;25173;50.430;18.926;2023-03-03T14:53:37;38.90;;;20.88;;
39486;SDS011;25173;50.430;18.926;2023-03-03T14:56:54;58.30;;;31.02;;
39486;SDS011;25173;50.430;18.926;2023-03-03T15:00:00;42.53;;;25.80;;
39486;SDS011;25173;50.430;18.926;2023-03-03T15:06:53;53.45;;;27.33;;
39486;SDS011;25173;50.430;18.926;2023-03-03T15:09:50;45.60;;;23.50;;
39486;SDS011;25173;50.430;18.926;2023-03-03T15:12:51;31.90;;;16.05;;
39486;SDS011;25173;50.430;18.926;2023-03-03T15:15:59;28.02;;;15.70;;
39486;SDS011;25173;50.430;18.926;2023-03-03T15:19:22;28.67;;;16.50;;
39486;SDS011;25173;50.430;18.926;2023-03-03T15:25:51;115.10;;;61.00;;
39486;SDS011;25173;50.430;18.926;2023-03-03T15:32:39;113.10;;;50.38;;
39486;SDS011;25173;50.430;18.926;2023-03-03T15:35:53;98.90;;;49.65;;
39486;SDS011;25173;50.430;18.926;2023-03-03T15:39:02;46.83;;;26.25;;
39486;SDS011;25173;50.430;18.926;2023-03-03T15:42:31;102.93;;;48.63;;
39486;SDS011;25173;50.430;18.926;2023-03-03T16:02:52;46.80;;;27.00;;
39486;SDS011;25173;50.430;18.926;2023-03-03T16:13:13;25.65;;;15.48;;
39486;SDS011;25173;50.430;18.926;2023-03-03T16:16:32;34.13;;;21.33;;
39486;SDS011;25173;50.430;18.926;2023-03-03T16:29:45;33.65;;;20.65;;
39486;SDS011;25173;50.430;18.926;2023-03-03T16:32:54;35.22;;;20.10;;
39486;SDS011;25173;50.430;18.926;2023-03-03T16:36:12;48.88;;;29.02;;
39486;SDS011;25173;50.430;18.926;2023-03-03T16:43:04;85.78;;;43.78;;
39486;SDS011;25173;50.430;18.926;2023-03-03T16:46:21;66.07;;;39.58;;
39486;SDS011;25173;50.430;18.926;2023-03-03T16:49:52;112.65;;;55.83;;
39486;SDS011;25173;50.430;18.926;2023-03-03T16:56:51;82.90;;;44.63;;
39486;SDS011;25173;50.430;18.926;2023-03-03T17:03:28;100.10;;;47.63;;
39486;SDS011;25173;50.430;18.926;2023-03-03T17:10:13;102.63;;;56.22;;
39486;SDS011;25173;50.430;18.926;2023-03-03T17:20:17;37.75;;;23.88;;
39486;SDS011;25173;50.430;18.926;2023-03-03T17:26:37;149.10;;;71.18;;
39486;SDS011;25173;50.430;18.926;2023-03-03T17:29:46;49.97;;;28.33;;
39486;SDS011;25173;50.430;18.926;2023-03-03T17:45:47;118.75;;;72.65;;
39486;SDS011;25173;50.430;18.926;2023-03-03T17:49:16;170.95;;;82.18;;
39486;SDS011;25173;50.430;18.926;2023-03-03T17:52:21;108.38;;;57.97;;
39486;SDS011;25173;50.430;18.926;2023-03-03T18:09:00;74.07;;;40.83;;
39486;SDS011;25173;50.430;18.926;2023-03-03T18:12:14;59.15;;;35.55;;
39486;SDS011;25173;50.430;18.926;2023-03-03T18:22:05;48.15;;;28.13;;
39486;SDS011;25173;50.430;18.926;2023-03-03T18:25:12;51.92;;;32.60;;
39486;SDS011;25173;50.430;18.926;2023-03-03T18:28:46;55.03;;;32.13;;
39486;SDS011;25173;50.430;18.926;2023-03-03T18:35:13;101.93;;;55.97;;
39486;SDS011;25173;50.430;18.926;2023-03-03T18:38:33;70.80;;;38.45;;
39486;SDS011;25173;50.430;18.926;2023-03-03T18:48:25;268.38;;;135.65;;
39486;SDS011;25173;50.430;18.926;2023-03-03T18:51:47;145.60;;;74.72;;
39486;SDS011;25173;50.430;18.926;2023-03-03T19:04:31;216.68;;;82.78;;
39486;SDS011;25173;50.430;18.926;2023-03-03T19:13:43;693.75;;;286.33;;
39486;SDS011;25173;50.430;18.926;2023-03-03T19:16:46;330.83;;;121.43;;
39486;SDS011;25173;50.430;18.926;2023-03-03T19:23:19;326.38;;;129.73;;
39486;SDS011;25173;50.430;18.926;2023-03-03T19:29:38;217.02;;;102.82;;
39486;SDS011;25173;50.430;18.926;2023-03-03T19:32:44;219.10;;;103.13;;
39486;SDS011;25173;50.430;18.926;2023-03-03T19:39:32;119.60;;;65.40;;
39486;SDS011;25173;50.430;18.926;2023-03-03T19:45:53;70.28;;;43.03;;
39486;SDS011;25173;50.430;18.926;2023-03-03T19:52:36;79.00;;;45.42;;
39486;SDS011;25173;50.430;18.926;2023-03-03T19:59:34;64.90;;;37.80;;
39486;SDS011;25173;50.430;18.926;2023-03-03T20:06:28;74.15;;;39.35;;
39486;SDS011;25173;50.430;18.926;2023-03-03T20:09:51;73.30;;;41.25;;
39486;SDS011;25173;50.430;18.926;2023-03-03T20:26:33;54.08;;;29.52;;
39486;SDS011;25173;50.430;18.926;2023-03-03T20:29:37;51.25;;;28.30;;
39486;SDS011;25173;50.430;18.926;2023-03-03T20:42:57;68.32;;;34.85;;
39486;SDS011;25173;50.430;18.926;2023-03-03T21:03:34;384.13;;;177.05;;
39486;SDS011;25173;50.430;18.926;2023-03-03T21:06:37;108.45;;;51.03;;
39486;SDS011;25173;50.430;18.926;2023-03-03T21:09:40;493.25;;;193.95;;
39486;SDS011;25173;50.430;18.926;2023-03-03T21:12:40;330.23;;;135.52;;
39486;SDS011;25173;50.430;18.926;2023-03-03T21:15:42;311.83;;;113.35;;
39486;SDS011;25173;50.430;18.926;2023-03-03T21:18:54;292.23;;;104.63;;
39486;SDS011;25173;50.430;18.926;2023-03-03T21:21:59;62.45;;;32.30;;
39486;SDS011;25173;50.430;18.926;2023-03-03T21:25:01;72.00;;;31.42;;
39486;SDS011;25173;50.430;18.926;2023-03-03T21:31:42;234.80;;;93.70;;
39486;SDS011;25173;50.430;18.926;2023-03-03T21:34:48;497.95;;;164.48;;
39486;SDS011;25173;50.430;18.926;2023-03-03T21:38:31;458.33;;;139.32;;
39486;SDS011;25173;50.430;18.926;2023-03-03T21:44:54;67.28;;;35.92;;
39486;SDS011;25173;50.430;18.926;2023-03-03T21:47:55;56.67;;;28.15;;
39486;SDS011;25173;50.430;18.926;2023-03-03T21:50:57;90.50;;;37.83;;
39486;SDS011;25173;50.430;18.926;2023-03-03T21:53:58;104.30;;;36.10;;
39486;SDS011;25173;50.430;18.926;2023-03-03T21:56:58;68.63;;;27.95;;
39486;SDS011;25173;50.430;18.926;2023-03-03T21:59:59;67.40;;;27.23;;
39486;SDS011;25173;50.430;18.926;2023-03-03T22:03:01;37.80;;;23.55;;
39486;SDS011;25173;50.430;18.926;2023-03-03T22:06:01;64.55;;;33.05;;
39486;SDS011;25173;50.430;18.926;2023-03-03T22:09:03;219.85;;;87.32;;
39486;SDS011;25173;50.430;18.926;2023-03-03T22:12:04;130.20;;;50.95;;
39486;SDS011;25173;50.430;18.926;2023-03-03T22:15:06;89.43;;;36.40;;
39486;SDS011;25173;50.430;18.926;2023-03-03T22:18:07;48.20;;;25.83;;
39486;SDS011;25173;50.430;18.926;2023-03-03T22:21:07;45.85;;;25.60;;
39486;SDS011;25173;50.430;18.926;2023-03-03T22:24:08;63.45;;;31.70;;
39486;SDS011;25173;50.430;18.926;2023-03-03T22:27:08;164.52;;;60.97;;
39486;SDS011;25173;50.430;18.926;2023-03-03T22:30:11;119.82;;;46.35;;
39486;SDS011;25173;50.430;18.926;2023-03-03T22:33:12;96.25;;;37.80;;
39486;SDS011;25173;50.430;18.926;2023-03-03T22:36:12;70.13;;;30.42;;
39486;SDS011;25173;50.430;18.926;2023-03-03T22:39:13;41.03;;;23.58;;
39486;SDS011;25173;50.430;18.926;2023-03-03T22:42:14;120.57;;;55.90;;
39486;SDS011;25173;50.430;18.926;2023-03-03T22:45:15;244.98;;;101.13;;
39486;SDS011;25173;50.430;18.926;2023-03-03T22:48:16;92.90;;;39.35;;
39486;SDS011;25173;50.430;18.926;2023-03-03T22:51:16;87.38;;;38.00;;
39486;SDS011;25173;50.430;18.926;2023-03-03T22:54:21;76.47;;;34.33;;
39486;SDS011;25173;50.430;18.926;2023-03-03T22:57:21;69.10;;;34.35;;
39486;SDS011;25173;50.430;18.926;2023-03-03T23:00:22;192.57;;;91.65;;
39486;SDS011;25173;50.430;18.926;2023-03-03T23:03:23;111.68;;;50.10;;
39486;SDS011;25173;50.430;18.926;2023-03-03T23:06:23;98.38;;;43.13;;
39486;SDS011;25173;50.430;18.926;2023-03-03T23:09:24;64.78;;;31.40;;
39486;SDS011;25173;50.430;18.926;2023-03-03T23:12:25;115.82;;;59.92;;
39486;SDS011;25173;50.430;18.926;2023-03-03T23:15:26;83.22;;;39.85;;
39486;SDS011;25173;50.430;18.926;2023-03-03T23:18:27;83.38;;;41.88;;
39486;SDS011;25173;50.430;18.926;2023-03-03T23:21:28;57.60;;;31.90;;
39486;SDS011;25173;50.430;18.926;2023-03-03T23:24:29;96.30;;;45.60;;
39486;SDS011;25173;50.430;18.926;2023-03-03T23:27:29;75.25;;;38.85;;
39486;SDS011;25173;50.430;18.926;2023-03-03T23:30:30;72.65;;;39.83;;
39486;SDS011;25173;50.430;18.926;2023-03-03T23:33:30;118.22;;;72.78;;
39486;SDS011;25173;50.430;18.926;2023-03-03T23:36:31;46.55;;;29.15;;
39486;SDS011;25173;50.430;18.926;2023-03-03T23:39:32;68.90;;;39.85;;
39486;SDS011;25173;50.430;18.926;2023-03-03T23:42:32;57.67;;;34.08;;
39486;SDS011;25173;50.430;18.926;2023-03-03T23:45:33;63.25;;;32.35;;
39486;SDS011;25173;50.430;18.926;2023-03-03T23:48:33;55.42;;;36.17;;
39486;SDS011;25173;50.430;18.926;2023-03-03T23:51:34;51.75;;;29.77;;
39486;SDS011;25173;50.430;18.926;2023-03-03T23:54:35;52.92;;;32.60;;
39486;SDS011;25173;50.430;18.926;2023-03-03T23:57:35;74.22;;;46.85;;
